createdAt,value
2019-05-12T00:00:04.149Z,6.7
2019-05-12T00:01:14.073Z,6.7
2019-05-12T00:02:21.276Z,6.7
2019-05-12T00:03:28.479Z,6.7
2019-05-12T00:04:35.682Z,6.7
2019-05-12T00:05:44.938Z,6.7
2019-05-12T00:06:54.534Z,6.7
2019-05-12T00:08:01.757Z,6.7
2019-05-12T00:09:09.053Z,6.7
2019-05-12T00:10:18.400Z,6.7
2019-05-12T00:11:25.606Z,6.7
2019-05-12T00:12:35.398Z,6.7
2019-05-12T00:13:45.128Z,6.7
2019-05-12T00:14:54.536Z,6.8
2019-05-12T00:16:01.459Z,6.8
2019-05-12T00:17:08.769Z,6.8
2019-05-12T00:18:18.469Z,6.8
2019-05-12T00:19:25.686Z,6.8
2019-05-12T00:20:35.205Z,6.8
2019-05-12T00:21:44.800Z,6.8
2019-05-12T00:22:54.506Z,6.8
2019-05-12T00:24:04.333Z,6.8
2019-05-12T00:25:11.529Z,6.8
2019-05-12T00:26:19.148Z,6.8
2019-05-12T00:27:28.863Z,6.8
2019-05-12T00:28:38.162Z,6.8
2019-05-12T00:29:45.357Z,6.7
2019-05-12T00:30:54.745Z,6.8
2019-05-12T00:32:04.035Z,6.7
2019-05-12T00:33:11.251Z,6.7
2019-05-12T00:34:19.083Z,6.8
2019-05-12T00:35:28.420Z,6.8
2019-05-12T00:36:37.791Z,6.8
2019-05-12T00:37:44.834Z,6.8
2019-05-12T00:38:52.043Z,6.8
2019-05-12T00:39:58.979Z,6.7
2019-05-12T00:41:08.615Z,6.7
2019-05-12T00:42:15.715Z,6.7
2019-05-12T00:43:25.041Z,6.7
2019-05-12T00:44:34.748Z,6.7
2019-05-12T00:45:41.950Z,6.7
2019-05-12T00:46:49.391Z,6.7
2019-05-12T00:47:58.925Z,6.7
2019-05-12T00:49:08.436Z,6.7
2019-05-12T00:50:15.622Z,6.7
2019-05-12T00:51:25.121Z,6.7
2019-05-12T00:52:32.330Z,6.7
2019-05-12T00:53:43.766Z,6.7
2019-05-12T00:54:50.964Z,6.7
2019-05-12T00:55:58.491Z,6.7
2019-05-12T00:57:08.186Z,6.7
2019-05-12T00:58:15.385Z,6.7
2019-05-12T00:59:28.413Z,6.8
2019-05-12T01:00:35.621Z,6.7
2019-05-12T01:01:48.695Z,6.7
2019-05-12T01:02:58.543Z,6.8
2019-05-12T01:04:05.730Z,6.8
2019-05-12T01:05:17.508Z,6.8
2019-05-12T01:06:24.593Z,6.7
2019-05-12T01:07:31.793Z,6.8
2019-05-12T01:08:38.995Z,6.7
2019-05-12T01:09:46.193Z,6.7
2019-05-12T01:10:57.722Z,6.8
2019-05-12T01:12:04.967Z,6.8
2019-05-12T01:13:14.619Z,6.8
2019-05-12T01:14:21.551Z,6.8
2019-05-12T01:15:29.403Z,6.7
2019-05-12T01:16:38.981Z,6.7
2019-05-12T01:17:48.192Z,6.8
2019-05-12T01:18:55.396Z,6.7
2019-05-12T01:20:05.293Z,6.8
2019-05-12T01:21:15.059Z,6.7
2019-05-12T01:22:24.670Z,6.8
2019-05-12T01:23:33.983Z,6.8
2019-05-12T01:24:41.191Z,6.8
2019-05-12T01:25:51.374Z,6.8
2019-05-12T01:26:58.853Z,6.8
2019-05-12T01:28:08.647Z,6.8
2019-05-12T01:29:18.102Z,6.8
2019-05-12T01:30:25.038Z,6.8
2019-05-12T01:31:34.593Z,6.8
2019-05-12T01:32:44.069Z,6.8
2019-05-12T01:33:51.271Z,6.8
2019-05-12T01:34:58.471Z,6.8
2019-05-12T01:36:05.138Z,6.8
2019-05-12T01:37:14.629Z,6.8
2019-05-12T01:38:21.839Z,6.8
2019-05-12T01:39:29.035Z,6.8
2019-05-12T01:40:38.498Z,6.8
2019-05-12T01:41:48.665Z,6.8
2019-05-12T01:42:58.667Z,6.8
2019-05-12T01:44:05.858Z,6.8
2019-05-12T01:45:17.845Z,6.8
2019-05-12T01:46:25.149Z,6.8
2019-05-12T01:47:34.969Z,6.8
2019-05-12T01:48:44.759Z,6.7
2019-05-12T01:49:54.628Z,6.8
2019-05-12T01:51:04.340Z,6.7
2019-05-12T01:52:11.543Z,6.7
2019-05-12T01:53:18.475Z,6.7
2019-05-12T01:54:28.270Z,6.7
2019-05-12T01:55:35.204Z,6.7
2019-05-12T01:56:44.777Z,6.7
2019-05-12T01:57:54.502Z,6.7
2019-05-12T01:59:03.924Z,6.7
2019-05-12T02:00:11.128Z,6.7
2019-05-12T02:01:19.022Z,6.7
2019-05-12T02:02:28.394Z,6.7
2019-05-12T02:03:38.118Z,6.7
2019-05-12T02:04:45.044Z,6.7
2019-05-12T02:05:51.969Z,6.7
2019-05-12T02:06:58.897Z,6.7
2019-05-12T02:08:06.097Z,6.7
2019-05-12T02:09:15.837Z,6.7
2019-05-12T02:10:25.371Z,6.7
2019-05-12T02:11:35.284Z,6.7
2019-05-12T02:12:44.671Z,6.7
2019-05-12T02:13:51.870Z,6.7
2019-05-12T02:14:59.426Z,6.6
2019-05-12T02:16:08.753Z,6.6
2019-05-12T02:17:18.396Z,6.6
2019-05-12T02:18:25.598Z,6.6
2019-05-12T02:19:34.863Z,6.6
2019-05-12T02:20:42.063Z,6.5
2019-05-12T02:21:49.377Z,6.5
2019-05-12T02:22:58.803Z,6.5
2019-05-12T02:24:09.333Z,6.5
2019-05-12T02:25:38.597Z,6.5
2019-05-12T02:26:45.803Z,6.5
2019-05-12T02:27:55.349Z,6.5
2019-05-12T02:29:05.057Z,6.5
2019-05-12T02:30:14.577Z,6.5
2019-05-12T02:31:21.779Z,6.5
2019-05-12T02:32:48.289Z,6.5
2019-05-12T02:34:06.338Z,6.5
2019-05-12T02:35:16.714Z,6.5
2019-05-12T02:36:26.475Z,6.5
2019-05-12T02:37:36.111Z,6.5
2019-05-12T02:38:45.880Z,6.5
2019-05-12T02:39:56.139Z,6.6
2019-05-12T02:41:05.310Z,6.5
2019-05-12T02:42:16.078Z,6.5
2019-05-12T02:43:25.017Z,6.6
2019-05-12T02:44:35.143Z,6.6
2019-05-12T02:45:45.244Z,6.5
2019-05-12T02:46:54.987Z,6.5
2019-05-12T02:48:05.803Z,6.5
2019-05-12T02:49:16.272Z,6.5
2019-05-12T02:50:25.314Z,6.5
2019-05-12T02:51:35.774Z,6.5
2019-05-12T02:52:44.888Z,6.5
2019-05-12T02:53:55.002Z,6.6
2019-05-12T02:55:06.733Z,6.6
2019-05-12T02:56:15.755Z,6.5
2019-05-12T02:57:26.136Z,6.5
2019-05-12T02:58:35.292Z,6.6
2019-05-12T02:59:45.323Z,6.6
2019-05-12T03:00:55.289Z,6.6
2019-05-12T03:02:05.690Z,6.5
2019-05-12T03:03:15.340Z,6.5
2019-05-12T03:04:25.156Z,6.5
2019-05-12T03:05:35.507Z,6.5
2019-05-12T03:06:45.117Z,6.5
2019-05-12T03:07:55.681Z,6.5
2019-05-12T03:09:05.350Z,6.5
2019-05-12T03:10:14.988Z,6.5
2019-05-12T03:11:25.309Z,6.5
2019-05-12T03:12:35.022Z,6.5
2019-05-12T03:13:45.328Z,6.5
2019-05-12T03:14:54.933Z,6.5
2019-05-12T03:16:05.592Z,6.5
2019-05-12T03:17:15.766Z,6.5
2019-05-12T03:18:25.818Z,6.5
2019-05-12T03:19:35.137Z,6.5
2019-05-12T03:20:45.172Z,6.5
2019-05-12T03:21:55.346Z,6.5
2019-05-12T03:23:06.836Z,6.5
2019-05-12T03:24:17.840Z,6.5
2019-05-12T03:25:30.387Z,6.4
2019-05-12T03:26:44.665Z,6.4
2019-05-12T03:27:54.959Z,6.5
2019-05-12T03:29:05.231Z,6.4
2019-05-12T03:30:20.039Z,6.5
2019-05-12T03:31:37.779Z,6.4
2019-05-12T03:32:48.593Z,6.5
2019-05-12T03:34:00.861Z,6.5
2019-05-12T03:35:18.805Z,6.4
2019-05-12T03:36:40.930Z,6.4
2019-05-12T03:37:58.432Z,6.4
2019-05-12T03:39:05.632Z,6.4
2019-05-12T03:40:15.056Z,6.5
2019-05-12T03:41:25.480Z,6.4
2019-05-12T03:42:35.940Z,6.4
2019-05-12T03:43:45.456Z,6.4
2019-05-12T03:44:55.253Z,6.4
2019-05-12T03:46:05.660Z,6.4
2019-05-12T03:47:15.063Z,6.4
2019-05-12T03:48:25.741Z,6.4
2019-05-12T03:49:35.339Z,6.4
2019-05-12T03:50:46.506Z,6.5
2019-05-12T03:51:54.914Z,6.5
2019-05-12T03:53:11.157Z,6.5
2019-05-12T03:54:25.016Z,6.4
2019-05-12T03:55:42.975Z,6.4
2019-05-12T03:56:56.305Z,6.5
2019-05-12T03:58:05.052Z,6.4
2019-05-12T03:59:15.429Z,6.4
2019-05-12T04:00:25.375Z,6.4
2019-05-12T04:01:37.039Z,6.4
2019-05-12T04:02:45.940Z,6.5
2019-05-12T04:03:54.781Z,6.4
2019-05-12T04:05:05.627Z,6.4
2019-05-12T04:06:16.358Z,6.5
2019-05-12T04:07:24.931Z,6.4
2019-05-12T04:08:35.163Z,6.4
2019-05-12T04:09:45.533Z,6.3
2019-05-12T04:10:55.408Z,6.3
2019-05-12T04:12:05.714Z,6.3
2019-05-12T04:13:15.733Z,6.3
2019-05-12T04:14:25.815Z,6.3
2019-05-12T04:15:35.703Z,6.3
2019-05-12T04:16:45.744Z,6.3
2019-05-12T04:17:54.849Z,6.3
2019-05-12T04:19:04.862Z,6.3
2019-05-12T04:20:15.760Z,6.3
2019-05-12T04:21:24.961Z,6.3
2019-05-12T04:22:34.689Z,6.3
2019-05-12T04:23:44.935Z,6.3
2019-05-12T04:24:55.534Z,6.3
2019-05-12T04:26:15.674Z,6.3
2019-05-12T04:27:25.732Z,6.3
2019-05-12T04:28:35.732Z,6.3
2019-05-12T04:29:44.718Z,6.3
2019-05-12T04:30:54.943Z,6.3
2019-05-12T04:32:04.742Z,6.3
2019-05-12T04:33:16.145Z,6.2
2019-05-12T04:34:25.728Z,6.2
2019-05-12T04:35:36.054Z,6.2
2019-05-12T04:36:45.402Z,6.2
2019-05-12T04:37:55.885Z,6.2
2019-05-12T04:39:04.873Z,6.2
2019-05-12T04:40:15.228Z,6.2
2019-05-12T04:41:26.437Z,6.2
2019-05-12T04:42:35.540Z,6.2
2019-05-12T04:43:45.317Z,6.2
2019-05-12T04:44:55.603Z,6.2
2019-05-12T04:46:05.640Z,6.2
2019-05-12T04:47:15.144Z,6.2
2019-05-12T04:48:26.174Z,6.2
2019-05-12T04:49:35.166Z,6.2
2019-05-12T04:50:44.967Z,6.1
2019-05-12T04:51:55.148Z,6.1
2019-05-12T04:53:06.977Z,6.1
2019-05-12T04:54:15.825Z,6
2019-05-12T04:55:26.233Z,6
2019-05-12T04:56:36.546Z,6
2019-05-12T04:57:45.671Z,6
2019-05-12T04:58:55.177Z,5.9
2019-05-12T05:00:05.606Z,5.9
2019-05-12T05:01:16.139Z,5.9
2019-05-12T05:02:25.662Z,5.9
2019-05-12T05:03:35.557Z,5.9
2019-05-12T05:04:44.639Z,5.8
2019-05-12T05:05:54.740Z,5.8
2019-05-12T05:07:04.959Z,5.8
2019-05-12T05:08:19.611Z,5.8
2019-05-12T05:09:26.989Z,5.8
2019-05-12T05:10:35.121Z,5.7
2019-05-12T05:11:45.512Z,5.7
2019-05-12T05:12:54.749Z,5.7
2019-05-12T05:14:04.713Z,5.7
2019-05-12T05:15:15.059Z,5.6
2019-05-12T05:16:24.535Z,5.6
2019-05-12T05:17:35.241Z,5.6
2019-05-12T05:18:44.440Z,5.6
2019-05-12T05:19:53.874Z,5.6
2019-05-12T05:21:01.093Z,5.6
2019-05-12T05:22:10.315Z,5.6
2019-05-12T05:23:19.940Z,5.6
2019-05-12T05:24:27.148Z,5.6
2019-05-12T05:25:34.746Z,5.6
2019-05-12T05:26:44.049Z,5.6
2019-05-12T05:27:52.743Z,5.6
2019-05-12T05:29:00.418Z,5.6
2019-05-12T05:30:07.618Z,5.6
2019-05-12T05:31:14.815Z,5.6
2019-05-12T05:32:23.781Z,5.6
2019-05-12T05:33:30.984Z,5.6
2019-05-12T05:34:40.442Z,5.6
2019-05-12T05:36:08.760Z,5.6
2019-05-12T05:37:26.249Z,5.7
2019-05-12T05:38:45.557Z,5.8
2019-05-12T05:39:57.470Z,5.8
2019-05-12T05:41:13.384Z,5.9
2019-05-12T05:42:28.232Z,5.9
2019-05-12T05:43:43.981Z,6
2019-05-12T05:45:09.780Z,6.1
2019-05-12T05:46:38.866Z,6.3
2019-05-12T05:48:05.307Z,6.4
2019-05-12T05:49:16.757Z,6.5
2019-05-12T05:50:38.641Z,6.5
2019-05-12T05:51:57.455Z,6.6
2019-05-12T05:53:09.093Z,6.7
2019-05-12T05:54:35.780Z,6.8
2019-05-12T05:55:56.102Z,7
2019-05-12T05:57:07.088Z,7.2
2019-05-12T05:58:15.990Z,7.2
2019-05-12T05:59:36.476Z,7.3
2019-05-12T06:00:44.083Z,7.4
2019-05-12T06:01:54.985Z,7.5
2019-05-12T06:03:06.116Z,7.5
2019-05-12T06:04:39.019Z,7.5
2019-05-12T06:06:10.306Z,7.5
2019-05-12T06:07:35.691Z,7.5
2019-05-12T06:08:46.129Z,7.6
2019-05-12T06:09:54.180Z,7.7
2019-05-12T06:11:01.381Z,7.9
2019-05-12T06:12:10.998Z,8
2019-05-12T06:13:27.160Z,8.1
2019-05-12T06:14:46.549Z,8.3
2019-05-12T06:16:11.537Z,8.5
2019-05-12T06:17:31.448Z,8.5
2019-05-12T06:18:40.812Z,8.7
2019-05-12T06:19:50.351Z,8.7
2019-05-12T06:21:00.120Z,8.8
2019-05-12T06:22:18.369Z,8.6
2019-05-12T06:23:34.716Z,8.6
2019-05-12T06:24:54.717Z,8.8
2019-05-12T06:26:05.769Z,9.1
2019-05-12T06:27:21.210Z,8.7
2019-05-12T06:28:37.003Z,8.7
2019-05-12T06:30:01.084Z,8.7
2019-05-12T06:31:18.837Z,8.6
2019-05-12T06:32:36.051Z,8.8
2019-05-12T06:33:47.494Z,9
2019-05-12T06:35:02.144Z,8.9
2019-05-12T06:36:26.635Z,8.9
2019-05-12T06:37:34.467Z,9.1
2019-05-12T06:38:43.905Z,9.2
2019-05-12T06:39:56.342Z,9
2019-05-12T06:41:20.932Z,9.2
2019-05-12T06:42:34.667Z,9.5
2019-05-12T06:43:45.598Z,9.6
2019-05-12T06:44:58.280Z,9.7
2019-05-12T06:46:05.558Z,9.8
2019-05-12T06:47:14.760Z,9.8
2019-05-12T06:48:30.262Z,9.8
2019-05-12T06:49:39.705Z,9.8
2019-05-12T06:50:46.907Z,10
2019-05-12T06:52:06.770Z,9.9
2019-05-12T06:53:14.541Z,9.8
2019-05-12T06:54:28.263Z,9.9
2019-05-12T06:55:39.680Z,10.1
2019-05-12T06:56:56.042Z,10.4
2019-05-12T06:58:35.040Z,10.5
2019-05-12T06:59:50.700Z,10.7
2019-05-12T07:01:12.756Z,10.3
2019-05-12T07:02:36.074Z,10
2019-05-12T07:04:10.129Z,10.1
2019-05-12T07:05:17.211Z,10.2
2019-05-12T07:06:25.286Z,10.3
2019-05-12T07:07:41.818Z,10.2
2019-05-12T07:09:09.703Z,10.2
2019-05-12T07:10:46.012Z,10.4
2019-05-12T07:12:14.246Z,10.4
2019-05-12T07:13:29.310Z,10.5
2019-05-12T07:14:36.731Z,10.8
2019-05-12T07:15:44.466Z,11.1
2019-05-12T07:17:02.684Z,11.1
2019-05-12T07:18:17.633Z,10.8
2019-05-12T07:19:40.685Z,10.8
2019-05-12T07:20:50.168Z,11.2
2019-05-12T07:22:00.750Z,11
2019-05-12T07:23:30.404Z,10.7
2019-05-12T07:24:49.930Z,10.4
2019-05-12T07:26:18.755Z,10.7
2019-05-12T07:27:39.649Z,10.6
2019-05-12T07:29:06.278Z,10.6
2019-05-12T07:30:14.244Z,10.9
2019-05-12T07:31:23.754Z,10.6
2019-05-12T07:32:34.204Z,10.7
2019-05-12T07:33:45.781Z,10.8
2019-05-12T07:34:54.957Z,11
2019-05-12T07:36:06.774Z,11.4
2019-05-12T07:37:15.534Z,11.7
2019-05-12T07:38:26.284Z,11.9
2019-05-12T07:39:49.262Z,11.7
2019-05-12T07:41:06.628Z,11.6
2019-05-12T07:42:22.591Z,11.1
2019-05-12T07:43:45.279Z,10.8
2019-05-12T07:45:05.327Z,10.9
2019-05-12T07:46:13.637Z,11.3
2019-05-12T07:47:29.350Z,11.4
2019-05-12T07:48:46.414Z,11
2019-05-12T07:49:57.707Z,11
2019-05-12T07:51:04.634Z,11
2019-05-12T07:52:14.226Z,11
2019-05-12T07:53:23.238Z,10.9
2019-05-12T07:54:39.532Z,11.3
2019-05-12T07:55:49.939Z,11.6
2019-05-12T07:57:12.225Z,11.7
2019-05-12T07:58:24.614Z,11.6
2019-05-12T07:59:41.124Z,11.1
2019-05-12T08:01:02.649Z,11.4
2019-05-12T08:02:14.875Z,12
2019-05-12T08:03:24.460Z,11.7
2019-05-12T08:04:41.129Z,11.8
2019-05-12T08:06:01.490Z,11.8
2019-05-12T08:07:11.300Z,11.8
2019-05-12T08:08:20.712Z,12.1
2019-05-12T08:09:36.287Z,12.4
2019-05-12T08:10:44.906Z,12.5
2019-05-12T08:11:57.908Z,12.3
2019-05-12T08:13:05.370Z,12.7
2019-05-12T08:14:28.503Z,12.8
2019-05-12T08:15:45.605Z,13
2019-05-12T08:17:18.758Z,13.2
2019-05-12T08:18:36.604Z,13.3
2019-05-12T08:19:47.687Z,12.2
2019-05-12T08:20:54.723Z,11.9
2019-05-12T08:22:04.124Z,11.8
2019-05-12T08:23:13.903Z,11.9
2019-05-12T08:24:23.475Z,11.8
2019-05-12T08:25:30.936Z,12
2019-05-12T08:26:40.527Z,12
2019-05-12T08:28:04.122Z,12.4
2019-05-12T08:29:30.648Z,12.7
2019-05-12T08:30:51.940Z,12.6
2019-05-12T08:32:03.999Z,12.3
2019-05-12T08:33:16.429Z,12
2019-05-12T08:34:24.303Z,12
2019-05-12T08:35:38.254Z,12.4
2019-05-12T08:36:57.772Z,12.5
2019-05-12T08:38:04.947Z,12.4
2019-05-12T08:39:23.533Z,12.5
2019-05-12T08:40:39.646Z,12.7
2019-05-12T08:42:00.361Z,12.7
2019-05-12T08:43:10.983Z,12.8
2019-05-12T08:44:18.227Z,13.1
2019-05-12T08:45:45.048Z,12.6
2019-05-12T08:46:56.837Z,12.5
2019-05-12T08:48:04.459Z,12.9
2019-05-12T08:49:25.468Z,13.2
2019-05-12T08:50:36.482Z,13.5
2019-05-12T08:51:49.372Z,13.6
2019-05-12T08:53:25.822Z,13.9
2019-05-12T08:54:34.174Z,13.5
2019-05-12T08:55:46.050Z,13.4
2019-05-12T08:57:01.198Z,13.4
2019-05-12T08:58:10.651Z,13.4
2019-05-12T08:59:35.685Z,13.7
2019-05-12T09:00:50.452Z,13.9
2019-05-12T09:02:06.705Z,14.1
2019-05-12T09:03:26.534Z,14.2
2019-05-12T09:04:55.016Z,14.8
2019-05-12T09:06:09.131Z,15.3
2019-05-12T09:07:35.654Z,15
2019-05-12T09:08:49.966Z,14.8
2019-05-12T09:09:56.910Z,14.8
2019-05-12T09:11:04.123Z,15
2019-05-12T09:12:11.328Z,15
2019-05-12T09:13:20.753Z,15.4
2019-05-12T09:14:43.396Z,15.6
2019-05-12T09:15:54.674Z,15.4
2019-05-12T09:17:07.539Z,15.3
2019-05-12T09:18:15.125Z,15.4
2019-05-12T09:19:27.669Z,15.7
2019-05-12T09:20:48.636Z,15.5
2019-05-12T09:22:18.376Z,15.1
2019-05-12T09:23:41.406Z,14.7
2019-05-12T09:24:58.312Z,14.4
2019-05-12T09:26:24.863Z,14.4
2019-05-12T09:27:45.476Z,14.2
2019-05-12T09:28:56.268Z,14
2019-05-12T09:30:09.758Z,13.9
2019-05-12T09:31:25.216Z,14.1
2019-05-12T09:32:45.257Z,13.5
2019-05-12T09:34:11.465Z,13.8
2019-05-12T09:35:28.511Z,14.4
2019-05-12T09:36:45.703Z,14.8
2019-05-12T09:38:11.261Z,15.2
2019-05-12T09:39:42.435Z,15.3
2019-05-12T09:41:03.162Z,14.4
2019-05-12T09:42:14.390Z,14.3
2019-05-12T09:43:34.932Z,14.3
2019-05-12T09:44:54.895Z,14.1
2019-05-12T09:46:15.043Z,14.4
2019-05-12T09:47:27.674Z,14.6
2019-05-12T09:48:45.556Z,14.6
2019-05-12T09:50:01.207Z,14.6
2019-05-12T09:51:17.793Z,15
2019-05-12T09:52:27.604Z,14.9
2019-05-12T09:53:34.826Z,14.6
2019-05-12T09:54:43.876Z,14.6
2019-05-12T09:55:51.007Z,14.9
2019-05-12T09:57:00.587Z,15.4
2019-05-12T09:58:07.525Z,15.8
2019-05-12T09:59:23.543Z,15.6
2019-05-12T10:00:37.746Z,15.7
2019-05-12T10:01:46.560Z,15.4
2019-05-12T10:03:00.823Z,15.3
2019-05-12T10:04:16.036Z,15.4
2019-05-12T10:05:37.371Z,15.9
2019-05-12T10:06:50.411Z,16
2019-05-12T10:07:59.438Z,15.4
2019-05-12T10:09:15.279Z,15.2
2019-05-12T10:10:35.285Z,15
2019-05-12T10:12:02.454Z,15.1
2019-05-12T10:13:14.355Z,15.2
2019-05-12T10:14:23.383Z,15.3
2019-05-12T10:15:30.464Z,14.8
2019-05-12T10:16:49.661Z,14.8
2019-05-12T10:18:06.266Z,15
2019-05-12T10:19:20.488Z,15.2
2019-05-12T10:20:35.062Z,16
2019-05-12T10:21:55.028Z,16.6
2019-05-12T10:23:16.424Z,16.4
2019-05-12T10:24:54.064Z,15.9
2019-05-12T10:26:12.208Z,16.1
2019-05-12T10:27:32.390Z,16.2
2019-05-12T10:28:53.463Z,16.4
2019-05-12T10:30:23.985Z,16.5
2019-05-12T10:31:39.272Z,15.8
2019-05-12T10:32:46.381Z,16.2
2019-05-12T10:33:58.325Z,16.6
2019-05-12T10:35:05.563Z,16.7
2019-05-12T10:36:12.497Z,16.9
2019-05-12T10:37:29.261Z,17
2019-05-12T10:38:36.362Z,16.6
2019-05-12T10:39:43.579Z,16.9
2019-05-12T10:40:50.795Z,17
2019-05-12T10:41:58.011Z,17.3
2019-05-12T10:43:05.429Z,17.9
2019-05-12T10:44:14.430Z,17.9
2019-05-12T10:45:36.297Z,17.4
2019-05-12T10:46:42.972Z,17.4
2019-05-12T10:47:50.183Z,17.6
2019-05-12T10:48:57.392Z,17.7
2019-05-12T10:50:04.612Z,17.4
2019-05-12T10:51:11.823Z,17.3
2019-05-12T10:52:19.039Z,16.9
2019-05-12T10:53:25.972Z,16.7
2019-05-12T10:54:34.846Z,16.5
2019-05-12T10:55:44.523Z,16.9
2019-05-12T10:56:54.502Z,17.1
2019-05-12T10:58:07.330Z,16.6
2019-05-12T10:59:33.088Z,16.5
2019-05-12T11:01:04.967Z,16.3
2019-05-12T11:02:20.294Z,16.4
2019-05-12T11:03:36.952Z,16.7
2019-05-12T11:04:57.341Z,17.1
2019-05-12T11:06:08.257Z,17.2
2019-05-12T11:07:15.487Z,17.4
2019-05-12T11:08:25.132Z,16.9
2019-05-12T11:09:34.953Z,15.9
2019-05-12T11:10:42.168Z,15.6
2019-05-12T11:11:49.388Z,15
2019-05-12T11:13:05.692Z,15.4
2019-05-12T11:14:31.143Z,15.3
2019-05-12T11:15:49.658Z,15.4
2019-05-12T11:16:56.687Z,15.8
2019-05-12T11:18:08.543Z,16.2
2019-05-12T11:19:15.754Z,16.6
2019-05-12T11:20:25.500Z,16.9
2019-05-12T11:21:34.186Z,16.9
2019-05-12T11:22:44.361Z,16.7
2019-05-12T11:23:54.110Z,16.5
2019-05-12T11:25:04.066Z,15.9
2019-05-12T11:26:11.614Z,15.6
2019-05-12T11:27:20.842Z,15.5
2019-05-12T11:28:29.999Z,15.6
2019-05-12T11:29:49.509Z,15.7
2019-05-12T11:30:56.824Z,16.1
2019-05-12T11:32:04.041Z,16.3
2019-05-12T11:33:11.260Z,17.1
2019-05-12T11:34:18.197Z,16.9
2019-05-12T11:35:25.417Z,16.9
2019-05-12T11:36:34.908Z,17.4
2019-05-12T11:37:42.121Z,17.7
2019-05-12T11:38:49.063Z,16.6
2019-05-12T11:39:57.651Z,16.6
2019-05-12T11:41:09.882Z,17.1
2019-05-12T11:42:26.692Z,17.5
2019-05-12T11:43:34.361Z,17.2
2019-05-12T11:44:41.296Z,16.8
2019-05-12T11:45:50.555Z,17
2019-05-12T11:47:00.154Z,16.5
2019-05-12T11:48:10.913Z,15.9
2019-05-12T11:49:26.620Z,16.2
2019-05-12T11:50:35.282Z,16.8
2019-05-12T11:52:00.943Z,16.2
2019-05-12T11:53:32.296Z,16.8
2019-05-12T11:54:51.131Z,17.5
2019-05-12T11:56:07.509Z,17.7
2019-05-12T11:57:26.066Z,17.5
2019-05-12T11:58:47.223Z,17.4
2019-05-12T12:00:05.284Z,17.8
2019-05-12T12:01:14.027Z,17.5
2019-05-12T12:02:30.330Z,18
2019-05-12T12:03:37.768Z,18.1
2019-05-12T12:04:44.702Z,18.4
2019-05-12T12:05:54.194Z,18.8
2019-05-12T12:07:01.406Z,18.9
2019-05-12T12:08:08.370Z,19.3
2019-05-12T12:09:19.348Z,19.3
2019-05-12T12:10:35.272Z,18.8
2019-05-12T12:11:46.530Z,18.2
2019-05-12T12:12:54.499Z,17.8
2019-05-12T12:14:10.567Z,17.4
2019-05-12T12:15:26.198Z,17
2019-05-12T12:16:50.286Z,16.7
2019-05-12T12:18:15.025Z,16.9
2019-05-12T12:19:34.843Z,17
2019-05-12T12:21:05.936Z,17.3
2019-05-12T12:22:15.194Z,17.7
2019-05-12T12:23:34.597Z,17.7
2019-05-12T12:24:44.028Z,17
2019-05-12T12:25:53.253Z,16.7
2019-05-12T12:27:00.628Z,16.6
2019-05-12T12:28:09.808Z,16.7
2019-05-12T12:29:17.014Z,16.9
2019-05-12T12:30:24.276Z,17.3
2019-05-12T12:31:38.901Z,17.2
2019-05-12T12:32:50.227Z,17.7
2019-05-12T12:34:06.785Z,18.4
2019-05-12T12:35:15.575Z,18
2019-05-12T12:36:24.213Z,17.9
2019-05-12T12:37:46.076Z,17.3
2019-05-12T12:38:54.198Z,17.8
2019-05-12T12:40:04.057Z,18.5
2019-05-12T12:41:13.663Z,19
2019-05-12T12:42:20.870Z,19.3
2019-05-12T12:43:30.440Z,19.6
2019-05-12T12:44:37.651Z,19.9
2019-05-12T12:45:44.859Z,19.6
2019-05-12T12:47:01.857Z,19.2
2019-05-12T12:48:09.165Z,19
2019-05-12T12:49:16.395Z,18.9
2019-05-12T12:50:30.447Z,19
2019-05-12T12:51:37.617Z,19.2
2019-05-12T12:52:49.218Z,19.8
2019-05-12T12:53:56.426Z,19.1
2019-05-12T12:55:08.474Z,18.1
2019-05-12T12:56:29.744Z,17.4
2019-05-12T12:57:46.194Z,17.5
2019-05-12T12:59:11.775Z,17.3
2019-05-12T13:00:46.345Z,17.4
2019-05-12T13:02:09.351Z,17.3
2019-05-12T13:03:25.557Z,17.4
2019-05-12T13:04:45.791Z,17
2019-05-12T13:05:57.207Z,16.6
2019-05-12T13:07:05.232Z,16.6
2019-05-12T13:08:12.173Z,16.7
2019-05-12T13:09:25.194Z,17.3
2019-05-12T13:10:34.276Z,17.5
2019-05-12T13:11:41.488Z,17.6
2019-05-12T13:13:00.906Z,18.1
2019-05-12T13:14:13.314Z,18.2
2019-05-12T13:15:23.590Z,18.3
2019-05-12T13:16:30.897Z,18.6
2019-05-12T13:17:44.634Z,18.1
2019-05-12T13:18:54.313Z,17.6
2019-05-12T13:20:00.942Z,18.1
2019-05-12T13:21:08.163Z,18.3
2019-05-12T13:22:19.421Z,18.6
2019-05-12T13:23:40.871Z,18.1
2019-05-12T13:24:48.399Z,17.8
2019-05-12T13:25:55.395Z,17.9
2019-05-12T13:27:04.123Z,18.2
2019-05-12T13:28:19.563Z,17.9
2019-05-12T13:29:40.060Z,17.8
2019-05-12T13:30:50.139Z,17.3
2019-05-12T13:31:57.359Z,16.9
2019-05-12T13:33:14.651Z,16.5
2019-05-12T13:34:34.582Z,16.5
2019-05-12T13:35:50.087Z,16.9
2019-05-12T13:37:03.993Z,17.5
2019-05-12T13:38:24.519Z,17.6
2019-05-12T13:39:36.513Z,17.8
2019-05-12T13:40:44.784Z,18.2
2019-05-12T13:42:00.474Z,18
2019-05-12T13:43:19.471Z,18.3
2019-05-12T13:44:36.235Z,18.5
2019-05-12T13:45:49.833Z,18.6
2019-05-12T13:46:59.362Z,18.3
2019-05-12T13:48:15.652Z,17.7
2019-05-12T13:49:35.994Z,17.1
2019-05-12T13:51:11.530Z,16.7
2019-05-12T13:52:30.375Z,16.6
2019-05-12T13:53:46.230Z,16.6
2019-05-12T13:55:05.362Z,17.2
2019-05-12T13:56:19.173Z,18
2019-05-12T13:57:53.015Z,18.9
2019-05-12T13:59:04.821Z,19.5
2019-05-12T14:00:14.509Z,19.9
2019-05-12T14:01:21.729Z,19.6
2019-05-12T14:02:34.075Z,19.7
2019-05-12T14:03:50.847Z,19.7
2019-05-12T14:05:11.053Z,19
2019-05-12T14:06:31.686Z,18.6
2019-05-12T14:07:44.839Z,18.9
2019-05-12T14:09:04.782Z,19.2
2019-05-12T14:10:14.392Z,19.3
2019-05-12T14:11:24.264Z,18.2
2019-05-12T14:12:31.476Z,17.6
2019-05-12T14:13:38.689Z,16.8
2019-05-12T14:14:45.625Z,16.3
2019-05-12T14:15:54.182Z,16.2
2019-05-12T14:17:03.561Z,16.5
2019-05-12T14:18:20.686Z,17.3
2019-05-12T14:19:35.494Z,18
2019-05-12T14:20:50.725Z,18.8
2019-05-12T14:22:06.817Z,19.3
2019-05-12T14:23:26.768Z,19.6
2019-05-12T14:24:46.640Z,20
2019-05-12T14:25:54.819Z,20.2
2019-05-12T14:27:04.577Z,20.7
2019-05-12T14:28:16.872Z,20.5
2019-05-12T14:29:30.728Z,20.3
2019-05-12T14:30:47.270Z,19.9
2019-05-12T14:32:05.511Z,19.6
2019-05-12T14:33:12.456Z,19.7
2019-05-12T14:34:23.467Z,20
2019-05-12T14:35:43.068Z,20
2019-05-12T14:37:10.165Z,19.8
2019-05-12T14:38:29.712Z,19.8
2019-05-12T14:39:49.974Z,19.5
2019-05-12T14:41:09.530Z,19.3
2019-05-12T14:42:25.855Z,18.8
2019-05-12T14:43:53.387Z,19
2019-05-12T14:45:10.153Z,19.5
2019-05-12T14:46:17.365Z,20.2
2019-05-12T14:47:30.172Z,20.7
2019-05-12T14:48:46.273Z,21
2019-05-12T14:49:57.381Z,19.8
2019-05-12T14:51:04.622Z,19.8
2019-05-12T14:52:13.944Z,20.3
2019-05-12T14:53:23.426Z,20.4
2019-05-12T14:54:30.858Z,20.7
2019-05-12T14:55:38.065Z,21
2019-05-12T14:56:57.777Z,20.8
2019-05-12T14:58:19.950Z,20.5
2019-05-12T14:59:40.804Z,20.1
2019-05-12T15:00:56.076Z,19.2
2019-05-12T15:02:06.780Z,18.2
2019-05-12T15:03:16.731Z,17.6
2019-05-12T15:04:29.892Z,17.3
2019-05-12T15:05:46.939Z,16.9
2019-05-12T15:07:05.736Z,17.1
2019-05-12T15:08:35.004Z,17.8
2019-05-12T15:09:47.092Z,18.6
2019-05-12T15:10:54.308Z,18.6
2019-05-12T15:12:04.008Z,18.8
2019-05-12T15:13:11.218Z,19
2019-05-12T15:14:37.436Z,19.5
2019-05-12T15:15:45.047Z,19.9
2019-05-12T15:17:06.351Z,19.8
2019-05-12T15:18:16.286Z,19.5
2019-05-12T15:19:30.036Z,18.9
2019-05-12T15:20:49.679Z,18.8
2019-05-12T15:22:07.483Z,19
2019-05-12T15:23:32.301Z,18.8
2019-05-12T15:24:49.175Z,18.7
2019-05-12T15:26:14.923Z,18.7
2019-05-12T15:27:45.754Z,19
2019-05-12T15:28:55.323Z,18.8
2019-05-12T15:30:17.950Z,18.6
2019-05-12T15:31:34.291Z,18.7
2019-05-12T15:32:41.234Z,19.2
2019-05-12T15:33:48.182Z,19.3
2019-05-12T15:34:55.120Z,19.6
2019-05-12T15:36:04.465Z,19.1
2019-05-12T15:37:11.628Z,19.1
2019-05-12T15:38:18.844Z,19.2
2019-05-12T15:39:26.059Z,18.6
2019-05-12T15:40:33.001Z,18.4
2019-05-12T15:41:40.212Z,18.3
2019-05-12T15:42:47.148Z,18
2019-05-12T15:43:56.453Z,18.1
2019-05-12T15:45:12.327Z,18.1
2019-05-12T15:46:25.073Z,17.9
2019-05-12T15:47:32.020Z,17.7
2019-05-12T15:48:44.495Z,17.7
2019-05-12T15:49:53.725Z,18.3
2019-05-12T15:51:08.653Z,18.8
2019-05-12T15:52:15.721Z,19.4
2019-05-12T15:53:27.359Z,19.7
2019-05-12T15:54:45.599Z,19.9
2019-05-12T15:56:14.366Z,20.2
2019-05-12T15:57:34.009Z,20
2019-05-12T15:58:41.232Z,19.6
2019-05-12T15:59:50.904Z,19.8
2019-05-12T16:01:00.342Z,19.8
2019-05-12T16:02:16.938Z,19.8
2019-05-12T16:03:26.961Z,19.1
2019-05-12T16:04:43.037Z,19.3
2019-05-12T16:05:55.197Z,19.5
2019-05-12T16:07:04.522Z,19.8
2019-05-12T16:08:14.087Z,19.5
2019-05-12T16:09:23.667Z,19.2
2019-05-12T16:10:31.045Z,18.8
2019-05-12T16:11:38.256Z,19.3
2019-05-12T16:12:45.204Z,19.4
2019-05-12T16:13:59.360Z,19.5
2019-05-12T16:15:11.291Z,19.7
2019-05-12T16:16:25.722Z,19.3
2019-05-12T16:17:34.746Z,19.1
2019-05-12T16:18:50.699Z,18.4
2019-05-12T16:20:00.168Z,18.5
2019-05-12T16:21:09.941Z,18.5
2019-05-12T16:22:17.156Z,18.2
2019-05-12T16:23:30.361Z,18
2019-05-12T16:24:37.565Z,18.1
2019-05-12T16:25:44.508Z,17.7
2019-05-12T16:26:53.568Z,18.1